Time,TemperatureF,DewpointF,PressureIn,WindDirection,WindDirectionDegrees,WindSpeedMPH,WindSpeedGustMPH,Humidity,HourlyPrecipIn,Conditions,Clouds,dailyrainin,SoftwareType,DateUTC
2013-02-19 00:00:00,37.9,28.8,29.86,SW,222,7.0,10.0,69,0.00,,,0.03,meteohub,2013-02-19 05:00:00,
2013-02-19 00:01:00,37.9,28.8,29.85,WSW,242,3.0,8.0,69,0.00,,,0.03,meteohub,2013-02-19 05:01:00,
2013-02-19 00:02:00,37.9,28.8,29.85,SSW,213,4.0,8.0,69,0.00,,,0.03,meteohub,2013-02-19 05:02:00,
2013-02-19 00:05:00,37.9,28.8,29.85,SW,232,5.0,8.0,69,0.00,,,0.00,meteohub,2013-02-19 05:05:00,
2013-02-19 00:10:00,37.9,28.8,29.85,SSW,211,9.0,9.0,69,0.00,,,0.00,meteohub,2013-02-19 05:10:00,
2013-02-19 00:15:00,38.1,28.9,29.85,SSW,211,3.0,7.0,69,0.00,,,0.00,meteohub,2013-02-19 05:15:00,
2013-02-19 00:20:00,38.5,29.1,29.85,SW,217,3.0,10.0,69,0.00,,,0.00,meteohub,2013-02-19 05:20:00,
2013-02-19 00:25:00,38.7,29.7,29.85,WSW,245,1.0,10.0,70,0.00,,,0.00,meteohub,2013-02-19 05:25:00,
2013-02-19 00:30:00,38.8,29.8,29.85,SW,225,1.0,10.0,70,0.00,,,0.00,meteohub,2013-02-19 05:30:00,
2013-02-19 00:36:00,39.0,29.7,29.85,WSW,240,3.0,7.0,69,0.00,,,0.00,meteohub,2013-02-19 05:36:00,
2013-02-19 00:41:00,39.4,30.0,29.85,SSW,207,3.0,7.0,69,0.00,,,0.00,meteohub,2013-02-19 05:41:00,
2013-02-19 00:46:00,39.7,30.0,29.84,WSW,253,4.0,7.0,68,0.00,,,0.00,meteohub,2013-02-19 05:46:00,
2013-02-19 00:51:00,39.9,30.2,29.84,SSW,209,5.0,8.0,68,0.01,,,0.01,meteohub,2013-02-19 05:51:00,
2013-02-19 00:56:00,40.3,30.6,29.84,SSW,212,4.0,8.0,68,0.01,,,0.01,meteohub,2013-02-19 05:56:00,
2013-02-19 01:01:00,40.3,30.6,29.83,WSW,252,3.0,8.0,68,0.01,,,0.01,meteohub,2013-02-19 06:01:00,
2013-02-19 01:06:00,40.5,30.4,29.83,SW,221,8.0,9.0,67,0.01,,,0.01,meteohub,2013-02-19 06:06:00,
2013-02-19 01:11:00,40.6,30.6,29.83,SSW,198,2.0,10.0,67,0.01,,,0.01,meteohub,2013-02-19 06:11:00,
2013-02-19 01:16:00,40.8,30.7,29.83,West,274,3.0,10.0,67,0.01,,,0.01,meteohub,2013-02-19 06:16:00,
2013-02-19 01:21:00,40.8,30.7,29.83,SW,229,3.0,10.0,67,0.01,,,0.01,meteohub,2013-02-19 06:21:00,
2013-02-19 01:27:00,41.2,30.7,29.83,SW,225,4.0,9.0,66,0.01,,,0.01,meteohub,2013-02-19 06:27:00,
2013-02-19 01:32:00,41.2,30.7,29.83,SW,217,5.0,10.0,66,0.01,,,0.01,meteohub,2013-02-19 06:32:00,
2013-02-19 01:37:00,41.5,31.1,29.83,WSW,243,2.0,10.0,66,0.01,,,0.01,meteohub,2013-02-19 06:37:00,
2013-02-19 01:42:00,41.5,30.7,29.82,SSW,206,7.0,10.0,65,0.01,,,0.01,meteohub,2013-02-19 06:42:00,
2013-02-19 01:47:00,41.9,30.9,29.82,SW,229,8.0,9.0,65,0.00,,,0.01,meteohub,2013-02-19 06:47:00,
2013-02-19 01:52:00,42.1,31.1,29.82,WSW,248,6.0,11.0,65,0.00,,,0.01,meteohub,2013-02-19 06:52:00,
2013-02-19 01:57:00,42.4,31.5,29.82,West,263,5.0,11.0,65,0.00,,,0.01,meteohub,2013-02-19 06:57:00,
2013-02-19 02:02:00,43.0,32.7,29.81,WSW,246,6.0,17.0,67,0.00,,,0.01,meteohub,2013-02-19 07:02:00,
2013-02-19 02:07:00,43.2,33.3,29.81,NNW,348,5.0,17.0,68,0.00,,,0.01,meteohub,2013-02-19 07:07:00,
2013-02-19 02:12:00,43.2,33.6,29.81,SSE,152,2.0,17.0,69,0.00,,,0.01,meteohub,2013-02-19 07:12:00,
2013-02-19 02:17:00,43.0,33.8,29.82,West,271,3.0,15.0,70,0.00,,,0.01,meteohub,2013-02-19 07:17:00,
2013-02-19 02:22:00,42.4,34.7,29.82,SSW,194,5.0,16.0,74,0.00,,,0.01,meteohub,2013-02-19 07:22:00,
2013-02-19 02:27:00,41.7,36.0,29.81,WNW,286,5.0,16.0,80,0.01,,,0.02,meteohub,2013-02-19 07:27:00,
2013-02-19 02:32:00,40.8,36.1,29.81,NW,321,8.0,17.0,83,0.04,,,0.05,meteohub,2013-02-19 07:32:00,
2013-02-19 02:37:00,40.5,36.0,29.80,SW,222,15.0,17.0,84,0.06,,,0.06,meteohub,2013-02-19 07:37:00,
2013-02-19 02:42:00,40.3,36.1,29.80,WSW,246,3.0,17.0,85,0.06,,,0.07,meteohub,2013-02-19 07:42:00,
2013-02-19 02:47:00,39.9,36.1,29.79,WSW,247,9.0,15.0,86,0.07,,,0.08,meteohub,2013-02-19 07:47:00,
2013-02-19 02:52:00,39.9,36.1,29.79,SW,232,2.0,15.0,86,0.07,,,0.08,meteohub,2013-02-19 07:52:00,
2013-02-19 02:57:00,39.7,36.1,29.79,SW,233,6.0,11.0,87,0.07,,,0.08,meteohub,2013-02-19 07:57:00,
2013-02-19 03:02:00,39.6,36.0,29.78,WSW,249,8.0,11.0,87,0.07,,,0.08,meteohub,2013-02-19 08:02:00,
2013-02-19 03:07:00,39.6,36.3,29.78,SSW,192,7.0,16.0,88,0.07,,,0.08,meteohub,2013-02-19 08:07:00,
2013-02-19 03:12:00,39.4,36.1,29.78,WSW,253,3.0,16.0,88,0.08,,,0.09,meteohub,2013-02-19 08:12:00,
2013-02-19 03:17:00,39.4,36.1,29.77,SW,233,3.0,16.0,88,0.08,,,0.09,meteohub,2013-02-19 08:17:00,
2013-02-19 03:23:00,39.2,36.3,29.77,WSW,244,7.0,12.0,89,0.08,,,0.09,meteohub,2013-02-19 08:23:00,
2013-02-19 03:28:00,39.2,36.3,29.76,West,279,9.0,13.0,89,0.07,,,0.10,meteohub,2013-02-19 08:28:00,
2013-02-19 03:33:00,39.0,36.1,29.76,WNW,284,2.0,20.0,89,0.06,,,0.11,meteohub,2013-02-19 08:33:00,
2013-02-19 03:38:00,38.8,36.0,29.75,SW,236,5.0,20.0,89,0.04,,,0.11,meteohub,2013-02-19 08:38:00,
2013-02-19 03:43:00,38.7,36.0,29.75,SW,221,4.0,20.0,90,0.04,,,0.11,meteohub,2013-02-19 08:43:00,
2013-02-19 03:48:00,38.5,35.8,29.75,WSW,242,4.0,18.0,90,0.04,,,0.12,meteohub,2013-02-19 08:48:00,
2013-02-19 03:53:00,38.1,35.4,29.74,SW,230,11.0,18.0,90,0.04,,,0.12,meteohub,2013-02-19 08:53:00,
2013-02-19 03:58:00,38.1,35.4,29.74,West,271,4.0,18.0,90,0.04,,,0.12,meteohub,2013-02-19 08:58:00,
2013-02-19 04:03:00,37.9,35.6,29.73,SSW,196,5.0,13.0,91,0.05,,,0.13,meteohub,2013-02-19 09:03:00,
2013-02-19 04:09:00,37.9,35.6,29.73,NW,304,6.0,15.0,91,0.05,,,0.13,meteohub,2013-02-19 09:09:00,
2013-02-19 04:14:00,37.8,35.4,29.72,SW,236,6.0,15.0,91,0.04,,,0.13,meteohub,2013-02-19 09:14:00,
2013-02-19 04:19:00,37.8,35.4,29.71,West,259,8.0,14.0,91,0.04,,,0.13,meteohub,2013-02-19 09:19:00,
2013-02-19 04:24:00,37.8,35.4,29.71,SSW,201,7.0,14.0,91,0.04,,,0.13,meteohub,2013-02-19 09:24:00,
2013-02-19 04:29:00,37.8,35.4,29.71,WSW,249,12.0,14.0,91,0.03,,,0.13,meteohub,2013-02-19 09:29:00,
2013-02-19 04:34:00,37.8,35.4,29.70,WSW,244,6.0,16.0,91,0.02,,,0.13,meteohub,2013-02-19 09:34:00,
2013-02-19 04:39:00,37.9,35.6,29.70,SW,219,16.0,16.0,91,0.02,,,0.13,meteohub,2013-02-19 09:39:00,
2013-02-19 04:44:00,37.9,35.2,29.71,WSW,242,2.0,18.0,90,0.01,,,0.13,meteohub,2013-02-19 09:44:00,
2013-02-19 04:49:00,37.9,35.2,29.70,SW,235,6.0,18.0,90,0.01,,,0.13,meteohub,2013-02-19 09:49:00,
2013-02-19 04:54:00,37.9,35.2,29.71,WSW,245,8.0,18.0,90,0.01,,,0.13,meteohub,2013-02-19 09:54:00,
2013-02-19 05:00:00,37.9,35.2,29.70,WNW,292,8.0,16.0,90,0.00,,,0.13,meteohub,2013-02-19 10:00:00,
2013-02-19 05:05:00,37.9,35.2,29.70,SW,234,10.0,20.0,90,0.00,,,0.13,meteohub,2013-02-19 10:05:00,
2013-02-19 05:10:00,37.8,35.1,29.70,SSW,197,8.0,20.0,90,0.01,,,0.14,meteohub,2013-02-19 10:10:00,
2013-02-19 05:15:00,37.8,35.1,29.70,SW,217,6.0,20.0,90,0.02,,,0.15,meteohub,2013-02-19 10:15:00,
2013-02-19 05:20:00,37.6,35.2,29.70,SW,234,7.0,17.0,91,0.02,,,0.16,meteohub,2013-02-19 10:20:00,
2013-02-19 05:25:00,37.4,35.1,29.69,SW,219,3.0,15.0,91,0.03,,,0.16,meteohub,2013-02-19 10:25:00,
2013-02-19 05:30:00,37.2,34.9,29.69,WSW,238,8.0,15.0,91,0.04,,,0.17,meteohub,2013-02-19 10:30:00,
2013-02-19 05:35:00,37.2,34.9,29.69,SW,219,7.0,14.0,91,0.04,,,0.17,meteohub,2013-02-19 10:35:00,
2013-02-19 05:40:00,37.2,34.9,29.69,SSW,204,7.0,16.0,91,0.04,,,0.17,meteohub,2013-02-19 10:40:00,
2013-02-19 05:45:00,37.2,34.9,29.68,WNW,287,4.0,16.0,91,0.04,,,0.17,meteohub,2013-02-19 10:45:00,
2013-02-19 05:50:00,37.2,34.9,29.68,SW,229,2.0,16.0,91,0.04,,,0.17,meteohub,2013-02-19 10:50:00,
2013-02-19 05:56:00,37.2,35.1,29.68,West,260,2.0,13.0,92,0.04,,,0.17,meteohub,2013-02-19 10:56:00,
2013-02-19 06:01:00,37.2,35.1,29.68,NW,312,6.0,16.0,92,0.04,,,0.17,meteohub,2013-02-19 11:01:00,
2013-02-19 06:06:00,37.2,35.1,29.67,SSW,207,5.0,16.0,92,0.04,,,0.18,meteohub,2013-02-19 11:06:00,
2013-02-19 06:11:00,37.2,35.1,29.67,SSW,207,5.0,16.0,92,0.03,,,0.18,meteohub,2013-02-19 11:11:00,
2013-02-19 06:16:00,37.4,35.2,29.67,West,263,3.0,15.0,92,0.03,,,0.18,meteohub,2013-02-19 11:16:00,
2013-02-19 06:21:00,37.4,35.6,29.67,SW,225,8.0,15.0,93,0.02,,,0.18,meteohub,2013-02-19 11:21:00,
2013-02-19 06:26:00,37.6,35.8,29.67,SW,220,5.0,21.0,93,0.01,,,0.18,meteohub,2013-02-19 11:26:00,
2013-02-19 06:31:00,37.8,35.6,29.67,SSW,210,5.0,21.0,92,0.01,,,0.18,meteohub,2013-02-19 11:31:00,
2013-02-19 06:36:00,37.8,35.6,29.66,NNE,30,4.0,21.0,92,0.01,,,0.18,meteohub,2013-02-19 11:36:00,
2013-02-19 06:41:00,37.9,35.8,29.66,SSW,211,14.0,22.0,92,0.01,,,0.18,meteohub,2013-02-19 11:41:00,
2013-02-19 06:46:00,38.1,36.0,29.66,WNW,284,7.0,22.0,92,0.01,,,0.18,meteohub,2013-02-19 11:46:00,
2013-02-19 06:51:00,38.1,36.0,29.66,SSW,202,5.0,22.0,92,0.02,,,0.19,meteohub,2013-02-19 11:51:00,
2013-02-19 06:56:00,38.5,36.1,29.66,West,269,7.0,19.0,91,0.02,,,0.19,meteohub,2013-02-19 11:56:00,
2013-02-19 07:01:00,38.5,36.1,29.66,WNW,284,6.0,16.0,91,0.01,,,0.19,meteohub,2013-02-19 12:01:00,
2013-02-19 07:07:00,38.5,36.3,29.65,SSW,198,7.0,16.0,92,0.01,,,0.19,meteohub,2013-02-19 12:07:00,
2013-02-19 07:12:00,38.7,36.5,29.66,SW,220,5.0,19.0,92,0.01,,,0.19,meteohub,2013-02-19 12:12:00,
2013-02-19 07:17:00,38.7,36.5,29.66,SW,227,5.0,22.0,92,0.01,,,0.19,meteohub,2013-02-19 12:17:00,
2013-02-19 07:22:00,38.7,36.5,29.66,West,269,2.0,22.0,92,0.01,,,0.19,meteohub,2013-02-19 12:22:00,
2013-02-19 07:27:00,38.7,36.5,29.65,WSW,246,9.0,21.0,92,0.01,,,0.19,meteohub,2013-02-19 12:27:00,
2013-02-19 07:32:00,38.7,36.5,29.65,NNW,329,8.0,21.0,92,0.01,,,0.19,meteohub,2013-02-19 12:32:00,
2013-02-19 07:37:00,38.7,36.5,29.65,SSW,213,4.0,17.0,92,0.01,,,0.19,meteohub,2013-02-19 12:37:00,
2013-02-19 07:42:00,38.8,36.7,29.65,NE,51,2.0,15.0,92,0.01,,,0.19,meteohub,2013-02-19 12:42:00,
2013-02-19 07:47:00,38.8,36.5,29.65,West,275,9.0,14.0,91,0.01,,,0.19,meteohub,2013-02-19 12:47:00,
2013-02-19 07:52:00,39.0,36.7,29.65,SW,234,5.0,15.0,91,0.00,,,0.19,meteohub,2013-02-19 12:52:00,
2013-02-19 07:57:00,39.0,36.7,29.65,WSW,246,5.0,15.0,91,0.00,,,0.19,meteohub,2013-02-19 12:57:00,
2013-02-19 08:02:00,39.4,37.0,29.65,NW,304,6.0,13.0,91,0.00,,,0.19,meteohub,2013-02-19 13:02:00,
2013-02-19 08:08:00,39.6,37.2,29.65,West,272,5.0,14.0,91,0.00,,,0.19,meteohub,2013-02-19 13:08:00,
2013-02-19 08:13:00,39.6,37.2,29.64,WSW,257,4.0,18.0,91,0.00,,,0.19,meteohub,2013-02-19 13:13:00,
2013-02-19 08:18:00,39.6,36.9,29.65,NW,307,5.0,18.0,90,0.00,,,0.19,meteohub,2013-02-19 13:18:00,
2013-02-19 08:23:00,39.6,37.2,29.65,West,259,7.0,18.0,91,0.00,,,0.19,meteohub,2013-02-19 13:23:00,
2013-02-19 08:28:00,39.7,37.0,29.65,WNW,284,4.0,15.0,90,0.00,,,0.19,meteohub,2013-02-19 13:28:00,
2013-02-19 08:33:00,39.6,37.2,29.65,West,259,4.0,15.0,91,0.00,,,0.19,meteohub,2013-02-19 13:33:00,
2013-02-19 08:38:00,39.6,37.2,29.65,SSW,211,7.0,15.0,91,0.00,,,0.19,meteohub,2013-02-19 13:38:00,
2013-02-19 08:43:00,39.7,37.4,29.65,WSW,252,5.0,18.0,91,0.00,,,0.19,meteohub,2013-02-19 13:43:00,
2013-02-19 08:48:00,39.6,37.2,29.65,WNW,298,6.0,18.0,91,0.00,,,0.19,meteohub,2013-02-19 13:48:00,
2013-02-19 08:53:00,39.6,37.4,29.66,WNW,286,11.0,18.0,92,0.01,,,0.20,meteohub,2013-02-19 13:53:00,
2013-02-19 08:59:00,39.4,37.2,29.66,NW,317,14.0,16.0,92,0.01,,,0.20,meteohub,2013-02-19 13:59:00,
2013-02-19 09:04:00,39.0,36.7,29.66,NW,317,7.0,16.0,91,0.02,,,0.21,meteohub,2013-02-19 14:04:00,
2013-02-19 09:09:00,38.7,36.3,29.66,NNW,339,12.0,16.0,91,0.02,,,0.21,meteohub,2013-02-19 14:09:00,
2013-02-19 09:14:00,37.8,35.1,29.66,WNW,300,7.0,20.0,90,0.02,,,0.21,meteohub,2013-02-19 14:14:00,
2013-02-19 09:19:00,37.0,34.3,29.67,NW,321,7.0,20.0,90,0.02,,,0.21,meteohub,2013-02-19 14:19:00,
2013-02-19 09:24:00,36.9,34.5,29.67,WNW,287,10.0,20.0,91,0.02,,,0.21,meteohub,2013-02-19 14:24:00,
2013-02-19 09:29:00,36.3,34.0,29.67,WNW,283,7.0,20.0,91,0.03,,,0.22,meteohub,2013-02-19 14:29:00,
2013-02-19 09:34:00,36.0,33.6,29.67,NNW,333,11.0,14.0,91,0.03,,,0.22,meteohub,2013-02-19 14:34:00,
2013-02-19 09:39:00,35.4,33.1,29.67,NW,309,11.0,12.0,91,0.03,,,0.22,meteohub,2013-02-19 14:39:00,
2013-02-19 09:44:00,34.9,32.2,29.67,NW,324,6.0,17.0,90,0.03,,,0.22,meteohub,2013-02-19 14:44:00,
2013-02-19 09:49:00,34.5,32.2,29.67,NNW,327,6.0,19.0,91,0.03,,,0.22,meteohub,2013-02-19 14:49:00,
2013-02-19 09:54:00,34.2,31.8,29.67,NW,323,7.0,19.0,91,0.02,,,0.22,meteohub,2013-02-19 14:54:00,
2013-02-19 10:00:00,34.0,31.6,29.68,NNW,328,10.0,19.0,91,0.02,,,0.22,meteohub,2013-02-19 15:00:00,
2013-02-19 10:05:00,33.8,31.5,29.68,NW,319,8.0,14.0,91,0.01,,,0.22,meteohub,2013-02-19 15:05:00,
2013-02-19 10:10:00,33.6,31.3,29.68,NW,317,7.0,14.0,91,0.01,,,0.22,meteohub,2013-02-19 15:10:00,
2013-02-19 10:15:00,33.6,31.3,29.68,WNW,298,11.0,13.0,91,0.01,,,0.22,meteohub,2013-02-19 15:15:00,
2013-02-19 10:20:00,33.4,30.7,29.68,WNW,300,9.0,14.0,90,0.01,,,0.22,meteohub,2013-02-19 15:20:00,
2013-02-19 10:25:00,33.3,30.6,29.68,WNW,302,6.0,21.0,90,0.01,,,0.22,meteohub,2013-02-19 15:25:00,
2013-02-19 10:30:00,33.1,30.4,29.68,NW,319,8.0,21.0,90,0.00,,,0.22,meteohub,2013-02-19 15:30:00,
2013-02-19 10:35:00,33.1,30.7,29.68,NNW,327,5.0,16.0,91,0.00,,,0.22,meteohub,2013-02-19 15:35:00,
2013-02-19 10:40:00,32.7,30.4,29.69,WNW,301,12.0,21.0,91,0.00,,,0.22,meteohub,2013-02-19 15:40:00,
2013-02-19 10:45:00,32.5,30.2,29.69,NW,316,5.0,21.0,91,0.00,,,0.22,meteohub,2013-02-19 15:45:00,
2013-02-19 10:50:00,32.4,30.0,29.69,NW,321,8.0,21.0,91,0.00,,,0.22,meteohub,2013-02-19 15:50:00,
2013-02-19 10:55:00,32.2,29.8,29.70,NNW,333,8.0,15.0,91,0.00,,,0.22,meteohub,2013-02-19 15:55:00,
2013-02-19 11:00:00,31.8,29.5,29.69,NNW,329,7.0,19.0,91,0.01,,,0.23,meteohub,2013-02-19 16:00:00,
2013-02-19 11:05:00,31.6,29.3,29.69,North,10,9.0,19.0,91,0.01,,,0.23,meteohub,2013-02-19 16:05:00,
2013-02-19 11:10:00,31.5,29.1,29.69,NW,311,6.0,19.0,91,0.01,,,0.23,meteohub,2013-02-19 16:10:00,
2013-02-19 11:16:00,31.5,28.9,29.70,NW,325,7.0,18.0,90,0.01,,,0.23,meteohub,2013-02-19 16:16:00,
2013-02-19 11:21:00,31.3,28.8,29.70,WNW,301,8.0,15.0,90,0.01,,,0.23,meteohub,2013-02-19 16:21:00,
2013-02-19 11:26:00,31.1,28.6,29.70,NNW,328,8.0,16.0,90,0.01,,,0.23,meteohub,2013-02-19 16:26:00,
2013-02-19 11:31:00,31.1,28.6,29.70,NW,325,9.0,16.0,90,0.01,,,0.23,meteohub,2013-02-19 16:31:00,
2013-02-19 11:36:00,30.9,28.0,29.70,NNW,331,6.0,16.0,89,0.01,,,0.23,meteohub,2013-02-19 16:36:00,
2013-02-19 11:41:00,30.6,27.7,29.71,NW,319,4.0,17.0,89,0.01,,,0.23,meteohub,2013-02-19 16:41:00,
2013-02-19 11:46:00,30.6,28.0,29.71,NNW,331,12.0,17.0,90,0.01,,,0.23,meteohub,2013-02-19 16:46:00,
2013-02-19 11:51:00,30.4,27.5,29.71,NNW,339,12.0,18.0,89,0.01,,,0.23,meteohub,2013-02-19 16:51:00,
2013-02-19 11:56:00,30.4,27.5,29.71,WNW,302,11.0,18.0,89,0.01,,,0.23,meteohub,2013-02-19 16:56:00,
2013-02-19 12:01:00,30.2,27.7,29.71,NW,315,12.0,19.0,90,0.00,,,0.23,meteohub,2013-02-19 17:01:00,
2013-02-19 12:06:00,30.0,27.5,29.71,WNW,302,10.0,19.0,90,0.00,,,0.23,meteohub,2013-02-19 17:06:00,
2013-02-19 12:11:00,29.7,26.8,29.71,NW,313,11.0,19.0,89,0.00,,,0.23,meteohub,2013-02-19 17:11:00,
2013-02-19 12:16:00,29.1,26.2,29.72,WNW,303,13.0,16.0,89,0.00,,,0.23,meteohub,2013-02-19 17:16:00,
2013-02-19 12:21:00,28.8,25.9,29.71,NW,323,11.0,19.0,89,0.00,,,0.23,meteohub,2013-02-19 17:21:00,
2013-02-19 12:27:00,28.6,25.2,29.72,NW,319,10.0,19.0,87,0.00,,,0.23,meteohub,2013-02-19 17:27:00,
2013-02-19 12:32:00,28.6,24.6,29.72,West,280,13.0,22.0,85,0.00,,,0.23,meteohub,2013-02-19 17:32:00,
2013-02-19 12:37:00,28.6,24.4,29.72,NW,324,11.0,22.0,84,0.00,,,0.23,meteohub,2013-02-19 17:37:00,
2013-02-19 12:42:00,28.6,24.4,29.72,West,280,10.0,20.0,84,0.00,,,0.23,meteohub,2013-02-19 17:42:00,
2013-02-19 12:47:00,28.4,23.9,29.72,West,277,7.0,20.0,83,0.00,,,0.23,meteohub,2013-02-19 17:47:00,
2013-02-19 12:52:00,28.6,23.5,29.72,NW,315,10.0,20.0,81,0.00,,,0.23,meteohub,2013-02-19 17:52:00,
2013-02-19 12:57:00,28.6,23.5,29.73,WNW,291,11.0,24.0,81,0.00,,,0.23,meteohub,2013-02-19 17:57:00,
2013-02-19 13:02:00,28.2,22.8,29.73,NW,307,8.0,25.0,80,0.00,,,0.23,meteohub,2013-02-19 18:02:00,
2013-02-19 13:07:00,27.7,22.3,29.73,NW,318,13.0,25.0,80,0.00,,,0.23,meteohub,2013-02-19 18:07:00,
2013-02-19 13:12:00,27.3,21.9,29.73,WSW,254,19.0,29.0,80,0.00,,,0.23,meteohub,2013-02-19 18:12:00,
2013-02-19 13:17:00,27.3,21.9,29.73,WNW,286,13.0,29.0,80,0.00,,,0.23,meteohub,2013-02-19 18:17:00,
2013-02-19 13:22:00,27.3,21.7,29.73,WNW,302,14.0,29.0,79,0.00,,,0.23,meteohub,2013-02-19 18:22:00,
2013-02-19 13:27:00,27.5,21.9,29.73,West,267,13.0,22.0,79,0.00,,,0.23,meteohub,2013-02-19 18:27:00,
2013-02-19 13:32:00,27.3,21.7,29.73,NNW,330,8.0,20.0,79,0.00,,,0.23,meteohub,2013-02-19 18:32:00,
2013-02-19 13:37:00,27.7,22.3,29.73,NW,314,13.0,19.0,80,0.00,,,0.23,meteohub,2013-02-19 18:37:00,
2013-02-19 13:42:00,27.7,22.1,29.73,NNW,335,5.0,20.0,79,0.00,,,0.23,meteohub,2013-02-19 18:42:00,
2013-02-19 13:47:00,27.9,22.3,29.73,NW,309,13.0,20.0,79,0.00,,,0.23,meteohub,2013-02-19 18:47:00,
2013-02-19 13:52:00,28.0,22.5,29.73,NW,306,6.0,20.0,79,0.00,,,0.23,meteohub,2013-02-19 18:52:00,
2013-02-19 13:57:00,28.0,22.5,29.73,West,262,15.0,19.0,79,0.00,,,0.23,meteohub,2013-02-19 18:57:00,
2013-02-19 14:02:00,28.0,22.5,29.73,NNW,340,4.0,19.0,79,0.00,,,0.23,meteohub,2013-02-19 19:02:00,
2013-02-19 14:07:00,27.9,22.3,29.73,NW,309,11.0,16.0,79,0.00,,,0.23,meteohub,2013-02-19 19:07:00,
2013-02-19 14:12:00,27.9,22.5,29.73,West,267,7.0,19.0,80,0.00,,,0.23,meteohub,2013-02-19 19:12:00,
2013-02-19 14:17:00,27.7,22.3,29.73,NW,326,9.0,19.0,80,0.00,,,0.23,meteohub,2013-02-19 19:17:00,
2013-02-19 14:22:00,27.7,22.3,29.73,NW,305,6.0,17.0,80,0.00,,,0.23,meteohub,2013-02-19 19:22:00,
2013-02-19 14:27:00,27.7,22.6,29.73,NW,306,7.0,17.0,81,0.00,,,0.23,meteohub,2013-02-19 19:27:00,
2013-02-19 14:32:00,27.7,22.3,29.74,NW,317,6.0,17.0,80,0.00,,,0.23,meteohub,2013-02-19 19:32:00,
2013-02-19 14:37:00,27.5,22.5,29.74,NNW,347,6.0,14.0,81,0.00,,,0.23,meteohub,2013-02-19 19:37:00,
2013-02-19 14:42:00,27.7,22.6,29.74,WNW,302,3.0,14.0,81,0.00,,,0.23,meteohub,2013-02-19 19:42:00,
2013-02-19 14:47:00,27.7,22.6,29.74,NW,320,3.0,13.0,81,0.00,,,0.23,meteohub,2013-02-19 19:47:00,
2013-02-19 14:52:00,27.7,22.6,29.74,North,351,6.0,11.0,81,0.00,,,0.23,meteohub,2013-02-19 19:52:00,
2013-02-19 14:57:00,27.5,22.5,29.75,North,349,11.0,17.0,81,0.00,,,0.23,meteohub,2013-02-19 19:57:00,
2013-02-19 15:02:00,27.3,22.8,29.75,NW,313,6.0,17.0,83,0.00,,,0.23,meteohub,2013-02-19 20:02:00,
2013-02-19 15:07:00,27.1,23.0,29.75,NW,304,7.0,17.0,84,0.00,,,0.23,meteohub,2013-02-19 20:07:00,
2013-02-19 15:12:00,27.0,22.8,29.76,WNW,302,10.0,13.0,84,0.00,,,0.23,meteohub,2013-02-19 20:12:00,
2013-02-19 15:17:00,26.6,21.9,29.76,NNW,334,11.0,19.0,82,0.00,,,0.23,meteohub,2013-02-19 20:17:00,
2013-02-19 15:22:00,26.4,21.4,29.76,NW,315,11.0,19.0,81,0.00,,,0.23,meteohub,2013-02-19 20:22:00,
2013-02-19 15:27:00,26.4,21.4,29.77,NW,309,14.0,23.0,81,0.00,,,0.23,meteohub,2013-02-19 20:27:00,
2013-02-19 15:32:00,26.2,21.6,29.77,NW,321,6.0,23.0,82,0.00,,,0.23,meteohub,2013-02-19 20:32:00,
2013-02-19 15:37:00,26.1,21.0,29.78,West,273,13.0,18.0,81,0.00,,,0.23,meteohub,2013-02-19 20:37:00,
2013-02-19 15:42:00,25.9,20.3,29.78,West,281,8.0,18.0,79,0.00,,,0.23,meteohub,2013-02-19 20:42:00,
2013-02-19 15:47:00,25.7,20.1,29.78,WNW,284,4.0,19.0,79,0.00,,,0.23,meteohub,2013-02-19 20:47:00,
2013-02-19 15:52:00,25.5,19.9,29.78,NNW,335,10.0,19.0,79,0.00,,,0.23,meteohub,2013-02-19 20:52:00,
2013-02-19 15:57:00,25.3,20.1,29.78,NW,311,7.0,19.0,80,0.00,,,0.23,meteohub,2013-02-19 20:57:00,
2013-02-19 16:02:00,25.3,19.8,29.78,NW,320,12.0,17.0,79,0.00,,,0.23,meteohub,2013-02-19 21:02:00,
2013-02-19 16:07:00,25.3,19.8,29.78,WNW,288,12.0,17.0,79,0.00,,,0.23,meteohub,2013-02-19 21:07:00,
2013-02-19 16:12:00,25.2,19.9,29.79,NW,305,9.0,19.0,80,0.00,,,0.23,meteohub,2013-02-19 21:12:00,
2013-02-19 16:17:00,25.0,20.3,29.78,NW,319,16.0,20.0,82,0.00,,,0.23,meteohub,2013-02-19 21:17:00,
2013-02-19 16:22:00,24.8,20.1,29.79,WNW,290,9.0,20.0,82,0.00,,,0.23,meteohub,2013-02-19 21:22:00,
2013-02-19 16:27:00,24.6,20.5,29.80,WNW,287,9.0,20.0,84,0.00,,,0.23,meteohub,2013-02-19 21:27:00,
2013-02-19 16:32:00,24.4,20.7,29.80,WNW,297,11.0,20.0,85,0.00,,,0.23,meteohub,2013-02-19 21:32:00,
2013-02-19 16:37:00,24.4,20.7,29.80,WNW,286,13.0,20.0,85,0.00,,,0.23,meteohub,2013-02-19 21:37:00,
2013-02-19 16:42:00,24.3,20.5,29.80,NW,308,8.0,20.0,85,0.00,,,0.23,meteohub,2013-02-19 21:42:00,
2013-02-19 16:47:00,24.1,20.5,29.81,NW,304,13.0,19.0,86,0.00,,,0.23,meteohub,2013-02-19 21:47:00,
2013-02-19 16:52:00,23.9,20.7,29.81,NW,311,4.0,19.0,87,0.00,,,0.23,meteohub,2013-02-19 21:52:00,
2013-02-19 16:57:00,23.7,20.5,29.81,NNW,330,4.0,17.0,87,0.00,,,0.23,meteohub,2013-02-19 21:57:00,
2013-02-19 17:02:00,23.5,19.9,29.81,WNW,293,10.0,16.0,86,0.00,,,0.23,meteohub,2013-02-19 22:02:00,
2013-02-19 17:07:00,23.4,19.6,29.81,NW,309,10.0,16.0,85,0.00,,,0.23,meteohub,2013-02-19 22:07:00,
2013-02-19 17:12:00,23.4,19.6,29.82,NW,306,7.0,18.0,85,0.00,,,0.23,meteohub,2013-02-19 22:12:00,
2013-02-19 17:17:00,23.0,19.4,29.83,NW,319,13.0,18.0,86,0.00,,,0.23,meteohub,2013-02-19 22:17:00,
2013-02-19 17:22:00,22.8,19.6,29.83,NW,313,8.0,18.0,87,0.00,,,0.23,meteohub,2013-02-19 22:22:00,
2013-02-19 17:27:00,22.6,19.6,29.83,NW,311,10.0,18.0,88,0.00,,,0.23,meteohub,2013-02-19 22:27:00,
2013-02-19 17:32:00,22.5,19.8,29.83,WNW,287,5.0,16.0,89,0.00,,,0.23,meteohub,2013-02-19 22:32:00,
2013-02-19 17:37:00,22.3,19.8,29.84,NNW,336,7.0,14.0,90,0.00,,,0.23,meteohub,2013-02-19 22:37:00,
2013-02-19 17:43:00,22.1,19.6,29.84,NW,306,15.0,16.0,90,0.00,,,0.23,meteohub,2013-02-19 22:43:00,
2013-02-19 17:48:00,21.7,19.2,29.85,NW,309,13.0,16.0,90,0.00,,,0.23,meteohub,2013-02-19 22:48:00,
2013-02-19 17:53:00,21.7,19.2,29.85,NW,320,11.0,18.0,90,0.00,,,0.23,meteohub,2013-02-19 22:53:00,
2013-02-19 17:58:00,21.7,19.0,29.85,NW,308,9.0,19.0,89,0.00,,,0.23,meteohub,2013-02-19 22:58:00,
2013-02-19 18:03:00,21.9,19.2,29.86,NW,311,6.0,19.0,89,0.00,,,0.23,meteohub,2013-02-19 23:03:00,
2013-02-19 18:08:00,21.9,18.9,29.86,NW,320,11.0,19.0,88,0.00,,,0.23,meteohub,2013-02-19 23:08:00,
2013-02-19 18:13:00,21.9,18.9,29.86,NW,324,11.0,16.0,88,0.00,,,0.23,meteohub,2013-02-19 23:13:00,
2013-02-19 18:18:00,21.7,18.7,29.87,WNW,296,11.0,16.0,88,0.00,,,0.23,meteohub,2013-02-19 23:18:00,
2013-02-19 18:23:00,21.7,19.0,29.87,NNW,334,8.0,16.0,89,0.00,,,0.23,meteohub,2013-02-19 23:23:00,
2013-02-19 18:28:00,21.6,18.9,29.87,WNW,293,7.0,15.0,89,0.00,,,0.23,meteohub,2013-02-19 23:28:00,
2013-02-19 18:33:00,21.6,18.9,29.87,NW,315,11.0,15.0,89,0.00,,,0.23,meteohub,2013-02-19 23:33:00,
2013-02-19 18:39:00,21.6,19.0,29.87,NW,322,6.0,15.0,90,0.00,,,0.23,meteohub,2013-02-19 23:39:00,
2013-02-19 18:44:00,21.6,19.0,29.88,NW,312,6.0,14.0,90,0.00,,,0.23,meteohub,2013-02-19 23:44:00,
2013-02-19 18:49:00,21.6,19.0,29.88,NNW,331,9.0,14.0,90,0.00,,,0.23,meteohub,2013-02-19 23:49:00,
2013-02-19 18:54:00,21.4,18.9,29.88,NW,313,5.0,13.0,90,0.00,,,0.23,meteohub,2013-02-19 23:54:00,
2013-02-19 18:59:00,21.6,19.0,29.88,NNW,327,9.0,13.0,90,0.00,,,0.23,meteohub,2013-02-19 23:59:00,
2013-02-19 19:04:00,21.6,19.0,29.89,NW,315,6.0,13.0,90,0.00,,,0.23,meteohub,2013-02-20 00:04:00,
2013-02-19 19:09:00,21.6,19.0,29.89,WNW,291,8.0,17.0,90,0.00,,,0.23,meteohub,2013-02-20 00:09:00,
2013-02-19 19:15:00,21.6,19.0,29.89,NNW,348,5.0,17.0,90,0.00,,,0.23,meteohub,2013-02-20 00:15:00,
2013-02-19 19:20:00,21.6,19.0,29.90,NW,318,5.0,17.0,90,0.00,,,0.23,meteohub,2013-02-20 00:20:00,
2013-02-19 19:25:00,21.4,18.9,29.90,WNW,296,8.0,12.0,90,0.00,,,0.23,meteohub,2013-02-20 00:25:00,
2013-02-19 19:30:00,21.0,18.9,29.90,WNW,303,4.0,11.0,91,0.00,,,0.23,meteohub,2013-02-20 00:30:00,
2013-02-19 19:35:00,20.7,18.5,29.90,NW,323,11.0,12.0,91,0.00,,,0.23,meteohub,2013-02-20 00:35:00,
2013-02-19 19:40:00,20.1,18.0,29.90,WNW,297,5.0,14.0,91,0.00,,,0.23,meteohub,2013-02-20 00:40:00,
2013-02-19 19:45:00,19.9,17.8,29.91,NW,318,9.0,14.0,91,0.00,,,0.23,meteohub,2013-02-20 00:45:00,
2013-02-19 19:51:00,19.8,17.6,29.91,NW,311,12.0,13.0,91,0.00,,,0.23,meteohub,2013-02-20 00:51:00,
2013-02-19 19:56:00,19.6,17.1,29.91,NW,305,5.0,18.0,90,0.00,,,0.23,meteohub,2013-02-20 00:56:00,
2013-02-19 20:01:00,19.4,17.2,29.92,North,355,8.0,18.0,91,0.00,,,0.23,meteohub,2013-02-20 01:01:00,
2013-02-19 20:06:00,19.0,16.5,29.92,NW,323,9.0,18.0,90,0.00,,,0.23,meteohub,2013-02-20 01:06:00,
2013-02-19 20:11:00,18.9,16.3,29.92,NW,305,11.0,15.0,90,0.00,,,0.23,meteohub,2013-02-20 01:11:00,
2013-02-19 20:16:00,18.7,16.0,29.93,North,5,13.0,15.0,89,0.00,,,0.23,meteohub,2013-02-20 01:16:00,
2013-02-19 20:21:00,18.5,15.6,29.92,NW,311,7.0,19.0,88,0.00,,,0.23,meteohub,2013-02-20 01:21:00,
2013-02-19 20:26:00,18.5,15.3,29.93,WNW,299,14.0,19.0,87,0.00,,,0.23,meteohub,2013-02-20 01:26:00,
2013-02-19 20:31:00,18.5,15.1,29.93,NNW,331,8.0,19.0,86,0.00,,,0.23,meteohub,2013-02-20 01:31:00,
2013-02-19 20:37:00,18.3,14.9,29.93,NW,319,8.0,19.0,86,0.00,,,0.23,meteohub,2013-02-20 01:37:00,
2013-02-19 20:42:00,18.1,14.9,29.93,NW,314,10.0,19.0,87,0.00,,,0.23,meteohub,2013-02-20 01:42:00,
2013-02-19 20:47:00,18.1,14.9,29.94,NW,322,7.0,17.0,87,0.00,,,0.23,meteohub,2013-02-20 01:47:00,
2013-02-19 20:52:00,18.0,14.7,29.93,NW,325,9.0,17.0,87,0.00,,,0.23,meteohub,2013-02-20 01:52:00,
2013-02-19 20:57:00,17.8,14.5,29.94,NW,311,8.0,17.0,87,0.00,,,0.23,meteohub,2013-02-20 01:57:00,
2013-02-19 21:02:00,17.6,14.2,29.93,NNW,333,12.0,14.0,86,0.00,,,0.23,meteohub,2013-02-20 02:02:00,
2013-02-19 21:07:00,17.8,14.4,29.94,NW,304,10.0,20.0,86,0.00,,,0.23,meteohub,2013-02-20 02:07:00,
2013-02-19 21:12:00,17.8,14.0,29.94,NW,319,7.0,20.0,85,0.00,,,0.23,meteohub,2013-02-20 02:12:00,
2013-02-19 21:17:00,17.8,13.8,29.93,NW,323,7.0,20.0,84,0.00,,,0.23,meteohub,2013-02-20 02:17:00,
2013-02-19 21:22:00,17.8,13.8,29.94,NW,316,10.0,18.0,84,0.00,,,0.23,meteohub,2013-02-20 02:22:00,
2013-02-19 21:27:00,17.4,13.6,29.94,NW,315,9.0,18.0,85,0.00,,,0.23,meteohub,2013-02-20 02:27:00,
2013-02-19 21:32:00,17.2,13.8,29.94,NW,325,6.0,18.0,86,0.00,,,0.23,meteohub,2013-02-20 02:32:00,
2013-02-19 21:37:00,17.2,14.0,29.94,NW,316,6.0,15.0,87,0.00,,,0.23,meteohub,2013-02-20 02:37:00,
2013-02-19 21:42:00,17.2,14.0,29.94,NW,314,7.0,14.0,87,0.00,,,0.23,meteohub,2013-02-20 02:42:00,
2013-02-19 21:47:00,17.1,13.8,29.94,NW,323,7.0,12.0,87,0.00,,,0.23,meteohub,2013-02-20 02:47:00,
2013-02-19 21:52:00,17.2,14.0,29.95,NW,311,8.0,12.0,87,0.00,,,0.23,meteohub,2013-02-20 02:52:00,
2013-02-19 21:58:00,17.2,14.0,29.94,NW,323,5.0,12.0,87,0.00,,,0.23,meteohub,2013-02-20 02:58:00,
2013-02-19 22:03:00,17.1,13.8,29.94,NNW,337,7.0,12.0,87,0.00,,,0.23,meteohub,2013-02-20 03:03:00,
2013-02-19 22:08:00,17.1,13.8,29.95,NW,320,7.0,14.0,87,0.00,,,0.23,meteohub,2013-02-20 03:08:00,
2013-02-19 22:13:00,17.1,13.8,29.95,WNW,290,5.0,14.0,87,0.00,,,0.23,meteohub,2013-02-20 03:13:00,
2013-02-19 22:18:00,17.1,13.8,29.95,NW,322,4.0,14.0,87,0.00,,,0.23,meteohub,2013-02-20 03:18:00,
2013-02-19 22:24:00,17.1,14.2,29.95,West,266,11.0,11.0,88,0.00,,,0.23,meteohub,2013-02-20 03:24:00,
2013-02-19 22:29:00,16.9,13.6,29.95,NNW,344,9.0,12.0,87,0.00,,,0.23,meteohub,2013-02-20 03:29:00,
2013-02-19 22:34:00,16.7,13.8,29.95,NW,315,6.0,12.0,88,0.00,,,0.23,meteohub,2013-02-20 03:34:00,
2013-02-19 22:39:00,16.7,13.8,29.95,WNW,288,13.0,15.0,88,0.00,,,0.23,meteohub,2013-02-20 03:39:00,
2013-02-19 22:44:00,16.5,13.3,29.95,NW,317,8.0,15.0,87,0.00,,,0.23,meteohub,2013-02-20 03:44:00,
2013-02-19 22:49:00,16.5,13.6,29.96,NW,312,6.0,13.0,88,0.00,,,0.23,meteohub,2013-02-20 03:49:00,
2013-02-19 22:54:00,16.5,13.6,29.95,NNW,327,6.0,13.0,88,0.00,,,0.23,meteohub,2013-02-20 03:54:00,
2013-02-19 23:00:00,16.5,13.6,29.95,NW,313,7.0,13.0,88,0.00,,,0.23,meteohub,2013-02-20 04:00:00,
2013-02-19 23:05:00,16.5,13.8,29.96,NNW,331,12.0,13.0,89,0.00,,,0.23,meteohub,2013-02-20 04:05:00,
2013-02-19 23:10:00,16.3,13.6,29.95,WNW,300,7.0,11.0,89,0.00,,,0.23,meteohub,2013-02-20 04:10:00,
2013-02-19 23:15:00,16.3,13.6,29.95,NW,325,7.0,14.0,89,0.00,,,0.23,meteohub,2013-02-20 04:15:00,
2013-02-19 23:20:00,16.3,13.6,29.96,WNW,292,7.0,14.0,89,0.00,,,0.23,meteohub,2013-02-20 04:20:00,
2013-02-19 23:25:00,16.3,13.6,29.96,NNW,330,4.0,14.0,89,0.00,,,0.23,meteohub,2013-02-20 04:25:00,
2013-02-19 23:30:00,16.2,13.8,29.96,NW,318,4.0,11.0,90,0.00,,,0.23,meteohub,2013-02-20 04:30:00,
2013-02-19 23:35:00,16.2,13.5,29.96,WNW,303,7.0,11.0,89,0.00,,,0.23,meteohub,2013-02-20 04:35:00,
2013-02-19 23:40:00,16.0,13.3,29.96,NW,324,8.0,11.0,89,0.00,,,0.23,meteohub,2013-02-20 04:40:00,
2013-02-19 23:45:00,15.6,12.9,29.96,NW,315,8.0,13.0,89,0.00,,,0.23,meteohub,2013-02-20 04:45:00,
2013-02-19 23:50:00,15.4,12.7,29.97,NW,306,5.0,13.0,89,0.00,,,0.23,meteohub,2013-02-20 04:50:00,
2013-02-19 23:55:00,15.4,12.6,29.96,NW,311,12.0,12.0,88,0.00,,,0.23,meteohub,2013-02-20 04:55:00,